sensor_id;sensor_type;location;lat;lon;timestamp;P1;durP1;ratioP1;P2;durP2;ratioP2
25752;SDS011;13600;50.816;4.416;2023-02-28T00:00:46;15.88;;;8.02;;
25752;SDS011;13600;50.816;4.416;2023-02-28T00:03:12;14.57;;;7.70;;
25752;SDS011;13600;50.816;4.416;2023-02-28T00:05:37;12.98;;;8.15;;
25752;SDS011;13600;50.816;4.416;2023-02-28T00:08:03;18.60;;;7.68;;
25752;SDS011;13600;50.816;4.416;2023-02-28T00:10:30;15.02;;;7.43;;
25752;SDS011;13600;50.816;4.416;2023-02-28T00:13:00;17.85;;;8.18;;
25752;SDS011;13600;50.816;4.416;2023-02-28T00:15:27;13.20;;;7.88;;
25752;SDS011;13600;50.816;4.416;2023-02-28T00:17:53;18.85;;;7.75;;
25752;SDS011;13600;50.816;4.416;2023-02-28T00:20:19;13.90;;;7.68;;
25752;SDS011;13600;50.816;4.416;2023-02-28T00:22:46;16.17;;;7.55;;
25752;SDS011;13600;50.816;4.416;2023-02-28T00:25:16;14.30;;;8.00;;
25752;SDS011;13600;50.816;4.416;2023-02-28T00:27:44;15.32;;;8.02;;
25752;SDS011;13600;50.816;4.416;2023-02-28T00:30:12;14.93;;;7.80;;
25752;SDS011;13600;50.816;4.416;2023-02-28T00:32:40;11.57;;;7.30;;
25752;SDS011;13600;50.816;4.416;2023-02-28T00:35:06;12.15;;;7.28;;
25752;SDS011;13600;50.816;4.416;2023-02-28T00:37:33;12.65;;;7.63;;
25752;SDS011;13600;50.816;4.416;2023-02-28T00:39:59;13.38;;;7.80;;
25752;SDS011;13600;50.816;4.416;2023-02-28T00:42:25;16.00;;;7.93;;
25752;SDS011;13600;50.816;4.416;2023-02-28T00:44:51;13.40;;;8.18;;
25752;SDS011;13600;50.816;4.416;2023-02-28T00:47:17;14.18;;;7.38;;
25752;SDS011;13600;50.816;4.416;2023-02-28T00:49:43;12.95;;;7.28;;
25752;SDS011;13600;50.816;4.416;2023-02-28T00:52:09;13.35;;;8.23;;
25752;SDS011;13600;50.816;4.416;2023-02-28T00:54:35;15.38;;;8.38;;
25752;SDS011;13600;50.816;4.416;2023-02-28T00:57:00;15.48;;;8.60;;
25752;SDS011;13600;50.816;4.416;2023-02-28T00:59:26;14.93;;;7.85;;
25752;SDS011;13600;50.816;4.416;2023-02-28T01:01:52;14.48;;;7.95;;
25752;SDS011;13600;50.816;4.416;2023-02-28T01:04:17;15.27;;;8.60;;
25752;SDS011;13600;50.816;4.416;2023-02-28T01:06:43;12.10;;;7.65;;
25752;SDS011;13600;50.816;4.416;2023-02-28T01:09:09;15.20;;;8.02;;
25752;SDS011;13600;50.816;4.416;2023-02-28T01:11:36;13.82;;;7.82;;
25752;SDS011;13600;50.816;4.416;2023-02-28T01:14:01;14.75;;;8.13;;
25752;SDS011;13600;50.816;4.416;2023-02-28T01:16:29;12.18;;;7.25;;
25752;SDS011;13600;50.816;4.416;2023-02-28T01:18:55;10.98;;;7.38;;
25752;SDS011;13600;50.816;4.416;2023-02-28T01:21:21;11.75;;;7.30;;
25752;SDS011;13600;50.816;4.416;2023-02-28T01:23:47;12.70;;;7.32;;
25752;SDS011;13600;50.816;4.416;2023-02-28T01:26:14;12.27;;;7.47;;
25752;SDS011;13600;50.816;4.416;2023-02-28T01:28:48;13.20;;;7.45;;
25752;SDS011;13600;50.816;4.416;2023-02-28T01:31:15;12.38;;;7.38;;
25752;SDS011;13600;50.816;4.416;2023-02-28T01:33:41;14.55;;;8.10;;
25752;SDS011;13600;50.816;4.416;2023-02-28T01:36:09;16.27;;;7.22;;
25752;SDS011;13600;50.816;4.416;2023-02-28T01:38:40;13.98;;;8.02;;
25752;SDS011;13600;50.816;4.416;2023-02-28T01:41:06;13.98;;;7.57;;
25752;SDS011;13600;50.816;4.416;2023-02-28T01:46:20;17.92;;;8.07;;
25752;SDS011;13600;50.816;4.416;2023-02-28T01:48:54;12.45;;;7.57;;
25752;SDS011;13600;50.816;4.416;2023-02-28T01:51:44;15.10;;;8.05;;
25752;SDS011;13600;50.816;4.416;2023-02-28T01:54:16;16.90;;;7.60;;
25752;SDS011;13600;50.816;4.416;2023-02-28T01:56:48;16.35;;;8.02;;
25752;SDS011;13600;50.816;4.416;2023-02-28T01:59:21;14.13;;;8.38;;
25752;SDS011;13600;50.816;4.416;2023-02-28T02:01:51;20.63;;;8.60;;
25752;SDS011;13600;50.816;4.416;2023-02-28T02:04:20;15.63;;;8.07;;
25752;SDS011;13600;50.816;4.416;2023-02-28T02:06:48;17.25;;;9.00;;
25752;SDS011;13600;50.816;4.416;2023-02-28T02:09:14;15.38;;;8.32;;
25752;SDS011;13600;50.816;4.416;2023-02-28T02:11:40;15.00;;;8.18;;
25752;SDS011;13600;50.816;4.416;2023-02-28T02:31:27;18.27;;;8.48;;
25752;SDS011;13600;50.816;4.416;2023-02-28T02:36:51;15.95;;;8.30;;
25752;SDS011;13600;50.816;4.416;2023-02-28T02:39:40;18.52;;;8.98;;
25752;SDS011;13600;50.816;4.416;2023-02-28T02:45:16;14.57;;;8.80;;
25752;SDS011;13600;50.816;4.416;2023-02-28T02:47:43;18.25;;;9.02;;
25752;SDS011;13600;50.816;4.416;2023-02-28T02:50:14;15.57;;;9.13;;
25752;SDS011;13600;50.816;4.416;2023-02-28T02:52:49;20.92;;;9.60;;
25752;SDS011;13600;50.816;4.416;2023-02-28T02:55:18;16.15;;;10.10;;
25752;SDS011;13600;50.816;4.416;2023-02-28T02:57:58;23.90;;;9.10;;
25752;SDS011;13600;50.816;4.416;2023-02-28T03:00:30;15.77;;;9.38;;
25752;SDS011;13600;50.816;4.416;2023-02-28T03:02:59;18.10;;;9.63;;
25752;SDS011;13600;50.816;4.416;2023-02-28T03:05:31;17.63;;;9.98;;
25752;SDS011;13600;50.816;4.416;2023-02-28T03:08:15;15.82;;;9.55;;
25752;SDS011;13600;50.816;4.416;2023-02-28T03:10:45;21.80;;;10.00;;
25752;SDS011;13600;50.816;4.416;2023-02-28T03:21:41;20.27;;;10.52;;
25752;SDS011;13600;50.816;4.416;2023-02-28T03:24:18;15.40;;;10.40;;
25752;SDS011;13600;50.816;4.416;2023-02-28T03:27:11;19.00;;;10.45;;
25752;SDS011;13600;50.816;4.416;2023-02-28T03:29:53;18.17;;;10.57;;
25752;SDS011;13600;50.816;4.416;2023-02-28T03:32:27;17.35;;;10.55;;
25752;SDS011;13600;50.816;4.416;2023-02-28T03:35:24;17.05;;;10.18;;
25752;SDS011;13600;50.816;4.416;2023-02-28T03:38:05;16.75;;;10.07;;
25752;SDS011;13600;50.816;4.416;2023-02-28T03:43:08;16.00;;;10.68;;
25752;SDS011;13600;50.816;4.416;2023-02-28T03:45:38;22.45;;;11.75;;
25752;SDS011;13600;50.816;4.416;2023-02-28T03:51:02;19.95;;;10.90;;
25752;SDS011;13600;50.816;4.416;2023-02-28T03:56:33;20.90;;;10.90;;
25752;SDS011;13600;50.816;4.416;2023-02-28T03:59:10;16.90;;;11.57;;
25752;SDS011;13600;50.816;4.416;2023-02-28T04:01:44;19.55;;;11.50;;
25752;SDS011;13600;50.816;4.416;2023-02-28T04:04:12;23.63;;;12.27;;
25752;SDS011;13600;50.816;4.416;2023-02-28T04:06:39;19.05;;;11.52;;
25752;SDS011;13600;50.816;4.416;2023-02-28T04:09:07;18.73;;;11.15;;
25752;SDS011;13600;50.816;4.416;2023-02-28T04:11:35;20.20;;;12.10;;
25752;SDS011;13600;50.816;4.416;2023-02-28T04:14:15;22.70;;;12.02;;
25752;SDS011;13600;50.816;4.416;2023-02-28T04:16:41;18.52;;;11.90;;
25752;SDS011;13600;50.816;4.416;2023-02-28T04:19:08;21.48;;;12.00;;
25752;SDS011;13600;50.816;4.416;2023-02-28T04:21:36;20.73;;;12.75;;
25752;SDS011;13600;50.816;4.416;2023-02-28T04:24:07;23.80;;;13.40;;
25752;SDS011;13600;50.816;4.416;2023-02-28T04:26:39;25.85;;;12.77;;
25752;SDS011;13600;50.816;4.416;2023-02-28T04:29:06;23.73;;;13.15;;
25752;SDS011;13600;50.816;4.416;2023-02-28T04:31:32;25.77;;;13.73;;
25752;SDS011;13600;50.816;4.416;2023-02-28T04:33:58;21.98;;;12.50;;
25752;SDS011;13600;50.816;4.416;2023-02-28T04:36:24;23.02;;;12.65;;
25752;SDS011;13600;50.816;4.416;2023-02-28T04:38:51;26.23;;;13.55;;
25752;SDS011;13600;50.816;4.416;2023-02-28T04:41:17;25.35;;;12.80;;
25752;SDS011;13600;50.816;4.416;2023-02-28T04:43:42;22.17;;;13.27;;
25752;SDS011;13600;50.816;4.416;2023-02-28T04:46:08;20.45;;;13.02;;
25752;SDS011;13600;50.816;4.416;2023-02-28T04:48:35;23.48;;;13.27;;
25752;SDS011;13600;50.816;4.416;2023-02-28T04:51:03;21.45;;;13.02;;
25752;SDS011;13600;50.816;4.416;2023-02-28T04:53:30;21.02;;;12.45;;
25752;SDS011;13600;50.816;4.416;2023-02-28T04:55:56;24.05;;;13.30;;
25752;SDS011;13600;50.816;4.416;2023-02-28T04:58:23;20.65;;;12.90;;
25752;SDS011;13600;50.816;4.416;2023-02-28T05:00:49;21.80;;;13.43;;
25752;SDS011;13600;50.816;4.416;2023-02-28T05:03:15;24.55;;;14.07;;
25752;SDS011;13600;50.816;4.416;2023-02-28T05:05:41;19.33;;;13.25;;
25752;SDS011;13600;50.816;4.416;2023-02-28T05:08:06;22.70;;;13.65;;
25752;SDS011;13600;50.816;4.416;2023-02-28T05:10:32;21.20;;;12.63;;
25752;SDS011;13600;50.816;4.416;2023-02-28T05:12:58;21.02;;;12.45;;
25752;SDS011;13600;50.816;4.416;2023-02-28T05:15:23;21.75;;;13.63;;
25752;SDS011;13600;50.816;4.416;2023-02-28T05:17:49;22.25;;;13.45;;
25752;SDS011;13600;50.816;4.416;2023-02-28T05:20:15;21.45;;;13.15;;
25752;SDS011;13600;50.816;4.416;2023-02-28T05:22:41;23.60;;;13.07;;
25752;SDS011;13600;50.816;4.416;2023-02-28T05:25:09;25.98;;;12.68;;
25752;SDS011;13600;50.816;4.416;2023-02-28T05:27:37;27.80;;;13.88;;
25752;SDS011;13600;50.816;4.416;2023-02-28T05:30:03;24.58;;;14.15;;
25752;SDS011;13600;50.816;4.416;2023-02-28T05:32:31;21.30;;;13.02;;
25752;SDS011;13600;50.816;4.416;2023-02-28T05:34:56;23.13;;;13.15;;
25752;SDS011;13600;50.816;4.416;2023-02-28T05:37:22;24.38;;;13.05;;
25752;SDS011;13600;50.816;4.416;2023-02-28T05:39:48;21.58;;;13.13;;
25752;SDS011;13600;50.816;4.416;2023-02-28T05:42:14;26.45;;;12.38;;
25752;SDS011;13600;50.816;4.416;2023-02-28T05:44:40;19.23;;;12.20;;
25752;SDS011;13600;50.816;4.416;2023-02-28T05:47:07;22.38;;;13.32;;
25752;SDS011;13600;50.816;4.416;2023-02-28T05:49:32;22.05;;;13.43;;
25752;SDS011;13600;50.816;4.416;2023-02-28T05:51:58;22.33;;;13.50;;
25752;SDS011;13600;50.816;4.416;2023-02-28T05:54:24;23.52;;;13.98;;
25752;SDS011;13600;50.816;4.416;2023-02-28T05:56:50;28.00;;;13.90;;
25752;SDS011;13600;50.816;4.416;2023-02-28T05:59:15;23.48;;;13.65;;
25752;SDS011;13600;50.816;4.416;2023-02-28T06:01:42;20.27;;;12.63;;
25752;SDS011;13600;50.816;4.416;2023-02-28T06:04:17;22.55;;;12.95;;
25752;SDS011;13600;50.816;4.416;2023-02-28T06:06:44;23.65;;;13.65;;
25752;SDS011;13600;50.816;4.416;2023-02-28T06:09:11;21.25;;;12.82;;
25752;SDS011;13600;50.816;4.416;2023-02-28T06:11:38;21.08;;;13.15;;
25752;SDS011;13600;50.816;4.416;2023-02-28T06:14:04;24.35;;;12.55;;
25752;SDS011;13600;50.816;4.416;2023-02-28T06:16:30;23.45;;;14.10;;
25752;SDS011;13600;50.816;4.416;2023-02-28T06:19:00;21.50;;;13.13;;
25752;SDS011;13600;50.816;4.416;2023-02-28T06:21:29;22.73;;;13.23;;
25752;SDS011;13600;50.816;4.416;2023-02-28T06:23:57;22.90;;;13.77;;
25752;SDS011;13600;50.816;4.416;2023-02-28T06:26:23;19.20;;;13.05;;
25752;SDS011;13600;50.816;4.416;2023-02-28T06:28:49;22.27;;;13.23;;
25752;SDS011;13600;50.816;4.416;2023-02-28T06:31:16;20.10;;;13.60;;
25752;SDS011;13600;50.816;4.416;2023-02-28T06:33:43;22.52;;;13.00;;
25752;SDS011;13600;50.816;4.416;2023-02-28T06:36:10;21.77;;;12.35;;
25752;SDS011;13600;50.816;4.416;2023-02-28T06:38:37;23.52;;;13.23;;
25752;SDS011;13600;50.816;4.416;2023-02-28T06:41:05;21.13;;;12.75;;
25752;SDS011;13600;50.816;4.416;2023-02-28T06:43:32;19.13;;;12.30;;
25752;SDS011;13600;50.816;4.416;2023-02-28T06:46:00;20.98;;;12.77;;
25752;SDS011;13600;50.816;4.416;2023-02-28T06:48:28;22.58;;;12.82;;
25752;SDS011;13600;50.816;4.416;2023-02-28T06:51:10;22.20;;;13.05;;
25752;SDS011;13600;50.816;4.416;2023-02-28T06:53:39;20.05;;;12.25;;
25752;SDS011;13600;50.816;4.416;2023-02-28T06:56:05;25.17;;;12.70;;
25752;SDS011;13600;50.816;4.416;2023-02-28T06:58:33;20.67;;;12.52;;
25752;SDS011;13600;50.816;4.416;2023-02-28T07:00:59;19.23;;;12.00;;
25752;SDS011;13600;50.816;4.416;2023-02-28T07:03:25;20.92;;;12.15;;
25752;SDS011;13600;50.816;4.416;2023-02-28T07:05:53;20.55;;;12.52;;
25752;SDS011;13600;50.816;4.416;2023-02-28T07:08:18;23.83;;;12.27;;
25752;SDS011;13600;50.816;4.416;2023-02-28T07:10:45;20.88;;;11.98;;
25752;SDS011;13600;50.816;4.416;2023-02-28T07:13:10;22.25;;;12.07;;
25752;SDS011;13600;50.816;4.416;2023-02-28T07:15:36;19.15;;;12.00;;
25752;SDS011;13600;50.816;4.416;2023-02-28T07:18:02;23.08;;;12.57;;
25752;SDS011;13600;50.816;4.416;2023-02-28T07:20:29;21.00;;;13.02;;
25752;SDS011;13600;50.816;4.416;2023-02-28T07:22:55;19.40;;;11.60;;
25752;SDS011;13600;50.816;4.416;2023-02-28T07:25:27;27.55;;;12.10;;
25752;SDS011;13600;50.816;4.416;2023-02-28T07:27:54;21.75;;;12.40;;
25752;SDS011;13600;50.816;4.416;2023-02-28T07:30:20;20.98;;;11.52;;
25752;SDS011;13600;50.816;4.416;2023-02-28T07:32:46;18.10;;;11.70;;
25752;SDS011;13600;50.816;4.416;2023-02-28T07:35:12;19.52;;;11.18;;
25752;SDS011;13600;50.816;4.416;2023-02-28T07:37:41;27.13;;;12.38;;
25752;SDS011;13600;50.816;4.416;2023-02-28T07:40:08;21.23;;;11.55;;
25752;SDS011;13600;50.816;4.416;2023-02-28T07:42:38;19.60;;;12.48;;
25752;SDS011;13600;50.816;4.416;2023-02-28T07:45:06;26.13;;;11.30;;
25752;SDS011;13600;50.816;4.416;2023-02-28T07:47:33;23.50;;;11.75;;
25752;SDS011;13600;50.816;4.416;2023-02-28T07:49:59;21.65;;;11.10;;
25752;SDS011;13600;50.816;4.416;2023-02-28T07:52:25;21.65;;;11.23;;
25752;SDS011;13600;50.816;4.416;2023-02-28T07:54:50;20.45;;;11.63;;
25752;SDS011;13600;50.816;4.416;2023-02-28T07:57:16;21.95;;;10.90;;
25752;SDS011;13600;50.816;4.416;2023-02-28T07:59:42;25.90;;;10.80;;
25752;SDS011;13600;50.816;4.416;2023-02-28T08:02:15;18.15;;;10.85;;
25752;SDS011;13600;50.816;4.416;2023-02-28T08:04:41;19.95;;;9.02;;
25752;SDS011;13600;50.816;4.416;2023-02-28T08:07:07;20.98;;;9.73;;
25752;SDS011;13600;50.816;4.416;2023-02-28T08:09:33;18.27;;;10.10;;
25752;SDS011;13600;50.816;4.416;2023-02-28T08:12:01;18.25;;;9.50;;
25752;SDS011;13600;50.816;4.416;2023-02-28T08:14:26;15.18;;;8.68;;
25752;SDS011;13600;50.816;4.416;2023-02-28T08:16:52;16.27;;;8.35;;
25752;SDS011;13600;50.816;4.416;2023-02-28T08:19:17;16.88;;;8.35;;
25752;SDS011;13600;50.816;4.416;2023-02-28T08:21:43;14.23;;;8.40;;
25752;SDS011;13600;50.816;4.416;2023-02-28T08:24:09;14.57;;;8.30;;
25752;SDS011;13600;50.816;4.416;2023-02-28T08:26:34;12.95;;;7.72;;
25752;SDS011;13600;50.816;4.416;2023-02-28T08:29:00;15.02;;;7.35;;
25752;SDS011;13600;50.816;4.416;2023-02-28T08:31:26;13.82;;;8.05;;
25752;SDS011;13600;50.816;4.416;2023-02-28T08:33:51;13.93;;;7.72;;
25752;SDS011;13600;50.816;4.416;2023-02-28T08:36:18;14.35;;;7.50;;
25752;SDS011;13600;50.816;4.416;2023-02-28T08:38:44;14.60;;;7.63;;
25752;SDS011;13600;50.816;4.416;2023-02-28T08:41:11;14.48;;;7.20;;
25752;SDS011;13600;50.816;4.416;2023-02-28T08:43:38;19.30;;;7.28;;
25752;SDS011;13600;50.816;4.416;2023-02-28T08:46:04;12.02;;;6.88;;
25752;SDS011;13600;50.816;4.416;2023-02-28T08:48:31;16.88;;;7.68;;
25752;SDS011;13600;50.816;4.416;2023-02-28T08:51:03;10.07;;;7.07;;
25752;SDS011;13600;50.816;4.416;2023-02-28T08:53:31;15.45;;;7.53;;
25752;SDS011;13600;50.816;4.416;2023-02-28T08:56:01;12.60;;;7.20;;
25752;SDS011;13600;50.816;4.416;2023-02-28T08:58:29;10.50;;;6.70;;
25752;SDS011;13600;50.816;4.416;2023-02-28T09:00:55;13.10;;;6.60;;
25752;SDS011;13600;50.816;4.416;2023-02-28T09:03:21;14.10;;;6.38;;
25752;SDS011;13600;50.816;4.416;2023-02-28T09:05:54;9.85;;;5.80;;
25752;SDS011;13600;50.816;4.416;2023-02-28T09:08:21;11.07;;;5.57;;
25752;SDS011;13600;50.816;4.416;2023-02-28T09:10:47;9.40;;;5.75;;
25752;SDS011;13600;50.816;4.416;2023-02-28T09:13:13;10.48;;;5.13;;
25752;SDS011;13600;50.816;4.416;2023-02-28T09:15:40;9.40;;;4.40;;
25752;SDS011;13600;50.816;4.416;2023-02-28T09:18:06;10.68;;;4.13;;
25752;SDS011;13600;50.816;4.416;2023-02-28T09:20:32;7.60;;;4.05;;
25752;SDS011;13600;50.816;4.416;2023-02-28T09:22:58;5.68;;;3.80;;
25752;SDS011;13600;50.816;4.416;2023-02-28T09:25:24;8.73;;;4.78;;
25752;SDS011;13600;50.816;4.416;2023-02-28T09:27:49;9.57;;;4.30;;
25752;SDS011;13600;50.816;4.416;2023-02-28T09:30:15;7.22;;;4.28;;
25752;SDS011;13600;50.816;4.416;2023-02-28T09:32:41;6.13;;;4.30;;
25752;SDS011;13600;50.816;4.416;2023-02-28T09:35:07;8.80;;;4.00;;
25752;SDS011;13600;50.816;4.416;2023-02-28T09:37:38;5.18;;;3.55;;
25752;SDS011;13600;50.816;4.416;2023-02-28T09:40:04;5.70;;;3.13;;
25752;SDS011;13600;50.816;4.416;2023-02-28T09:42:31;6.90;;;4.15;;
25752;SDS011;13600;50.816;4.416;2023-02-28T09:44:58;4.35;;;3.38;;
25752;SDS011;13600;50.816;4.416;2023-02-28T09:49:58;4.97;;;3.60;;
25752;SDS011;13600;50.816;4.416;2023-02-28T09:52:46;5.95;;;2.92;;
25752;SDS011;13600;50.816;4.416;2023-02-28T09:57:49;6.35;;;3.33;;
25752;SDS011;13600;50.816;4.416;2023-02-28T10:00:20;4.75;;;3.00;;
25752;SDS011;13600;50.816;4.416;2023-02-28T10:05:15;7.80;;;3.33;;
25752;SDS011;13600;50.816;4.416;2023-02-28T10:13:32;7.30;;;3.72;;
25752;SDS011;13600;50.816;4.416;2023-02-28T10:18:50;4.10;;;2.58;;
25752;SDS011;13600;50.816;4.416;2023-02-28T10:21:23;4.05;;;2.63;;
25752;SDS011;13600;50.816;4.416;2023-02-28T10:24:03;4.82;;;2.88;;
25752;SDS011;13600;50.816;4.416;2023-02-28T10:26:37;4.13;;;2.50;;
25752;SDS011;13600;50.816;4.416;2023-02-28T10:29:02;7.18;;;2.42;;
25752;SDS011;13600;50.816;4.416;2023-02-28T10:31:29;5.07;;;2.35;;
25752;SDS011;13600;50.816;4.416;2023-02-28T10:33:55;4.68;;;2.05;;
25752;SDS011;13600;50.816;4.416;2023-02-28T10:36:21;3.42;;;2.00;;
25752;SDS011;13600;50.816;4.416;2023-02-28T10:38:47;4.18;;;1.88;;
25752;SDS011;13600;50.816;4.416;2023-02-28T10:41:15;3.65;;;1.92;;
25752;SDS011;13600;50.816;4.416;2023-02-28T10:43:51;3.40;;;2.00;;
25752;SDS011;13600;50.816;4.416;2023-02-28T10:46:18;5.75;;;2.47;;
25752;SDS011;13600;50.816;4.416;2023-02-28T10:49:01;5.13;;;2.08;;
25752;SDS011;13600;50.816;4.416;2023-02-28T10:51:38;4.07;;;1.95;;
25752;SDS011;13600;50.816;4.416;2023-02-28T10:54:05;3.53;;;2.40;;
25752;SDS011;13600;50.816;4.416;2023-02-28T10:59:50;3.67;;;2.40;;
25752;SDS011;13600;50.816;4.416;2023-02-28T11:02:31;4.57;;;2.35;;
25752;SDS011;13600;50.816;4.416;2023-02-28T11:04:58;4.28;;;2.50;;
25752;SDS011;13600;50.816;4.416;2023-02-28T11:07:25;4.40;;;2.30;;
25752;SDS011;13600;50.816;4.416;2023-02-28T11:09:53;3.40;;;2.10;;
25752;SDS011;13600;50.816;4.416;2023-02-28T11:12:36;5.97;;;2.45;;
25752;SDS011;13600;50.816;4.416;2023-02-28T11:15:14;4.50;;;2.55;;
25752;SDS011;13600;50.816;4.416;2023-02-28T11:17:53;3.80;;;2.60;;
25752;SDS011;13600;50.816;4.416;2023-02-28T11:20:21;5.13;;;2.47;;
25752;SDS011;13600;50.816;4.416;2023-02-28T11:22:51;5.75;;;2.63;;
25752;SDS011;13600;50.816;4.416;2023-02-28T11:25:23;3.92;;;2.47;;
25752;SDS011;13600;50.816;4.416;2023-02-28T11:28:02;3.00;;;2.03;;
25752;SDS011;13600;50.816;4.416;2023-02-28T11:30:34;2.70;;;2.30;;
25752;SDS011;13600;50.816;4.416;2023-02-28T11:33:00;5.18;;;2.70;;
25752;SDS011;13600;50.816;4.416;2023-02-28T11:35:40;6.55;;;4.03;;
25752;SDS011;13600;50.816;4.416;2023-02-28T11:38:10;5.25;;;2.50;;
25752;SDS011;13600;50.816;4.416;2023-02-28T11:40:45;6.05;;;3.08;;
25752;SDS011;13600;50.816;4.416;2023-02-28T11:43:33;5.95;;;3.30;;
25752;SDS011;13600;50.816;4.416;2023-02-28T11:46:52;6.35;;;3.55;;
25752;SDS011;13600;50.816;4.416;2023-02-28T11:55:07;6.82;;;2.97;;
25752;SDS011;13600;50.816;4.416;2023-02-28T11:57:55;4.55;;;3.00;;
25752;SDS011;13600;50.816;4.416;2023-02-28T12:27:57;3.35;;;2.25;;
25752;SDS011;13600;50.816;4.416;2023-02-28T12:30:27;4.75;;;2.38;;
25752;SDS011;13600;50.816;4.416;2023-02-28T12:32:56;3.40;;;2.30;;
25752;SDS011;13600;50.816;4.416;2023-02-28T12:35:33;4.78;;;2.35;;
25752;SDS011;13600;50.816;4.416;2023-02-28T12:38:08;3.72;;;2.00;;
25752;SDS011;13600;50.816;4.416;2023-02-28T12:43:38;5.13;;;2.15;;
25752;SDS011;13600;50.816;4.416;2023-02-28T12:48:44;2.88;;;2.13;;
25752;SDS011;13600;50.816;4.416;2023-02-28T12:51:15;3.25;;;2.15;;
25752;SDS011;13600;50.816;4.416;2023-02-28T12:56:48;4.07;;;2.40;;
25752;SDS011;13600;50.816;4.416;2023-02-28T12:59:37;3.45;;;2.20;;
25752;SDS011;13600;50.816;4.416;2023-02-28T13:02:17;4.78;;;2.22;;
25752;SDS011;13600;50.816;4.416;2023-02-28T13:10:08;4.68;;;2.17;;
25752;SDS011;13600;50.816;4.416;2023-02-28T13:12:34;3.45;;;2.33;;
25752;SDS011;13600;50.816;4.416;2023-02-28T13:17:49;4.03;;;2.28;;
25752;SDS011;13600;50.816;4.416;2023-02-28T13:20:18;5.85;;;2.30;;
25752;SDS011;13600;50.816;4.416;2023-02-28T13:22:49;3.58;;;2.10;;
25752;SDS011;13600;50.816;4.416;2023-02-28T13:27:58;2.47;;;2.10;;
25752;SDS011;13600;50.816;4.416;2023-02-28T13:33:34;7.05;;;2.28;;
25752;SDS011;13600;50.816;4.416;2023-02-28T13:36:10;4.32;;;2.35;;
25752;SDS011;13600;50.816;4.416;2023-02-28T13:44:08;4.82;;;2.60;;
25752;SDS011;13600;50.816;4.416;2023-02-28T13:51:50;3.67;;;2.33;;
25752;SDS011;13600;50.816;4.416;2023-02-28T14:01:07;5.25;;;2.65;;
25752;SDS011;13600;50.816;4.416;2023-02-28T14:06:37;3.33;;;2.38;;
25752;SDS011;13600;50.816;4.416;2023-02-28T14:09:24;5.15;;;2.30;;
25752;SDS011;13600;50.816;4.416;2023-02-28T14:15:26;4.28;;;2.50;;
25752;SDS011;13600;50.816;4.416;2023-02-28T14:20:53;5.82;;;3.47;;
25752;SDS011;13600;50.816;4.416;2023-02-28T14:29:18;4.13;;;2.50;;
25752;SDS011;13600;50.816;4.416;2023-02-28T14:37:29;6.20;;;2.88;;
25752;SDS011;13600;50.816;4.416;2023-02-28T14:39:58;4.75;;;2.55;;
25752;SDS011;13600;50.816;4.416;2023-02-28T14:42:33;4.75;;;2.50;;
25752;SDS011;13600;50.816;4.416;2023-02-28T14:45:01;4.25;;;2.70;;
25752;SDS011;13600;50.816;4.416;2023-02-28T14:47:28;4.05;;;2.38;;
25752;SDS011;13600;50.816;4.416;2023-02-28T14:49:59;4.00;;;2.47;;
25752;SDS011;13600;50.816;4.416;2023-02-28T14:52:27;3.80;;;2.55;;
25752;SDS011;13600;50.816;4.416;2023-02-28T14:54:58;5.30;;;2.70;;
25752;SDS011;13600;50.816;4.416;2023-02-28T14:57:30;5.90;;;2.85;;
25752;SDS011;13600;50.816;4.416;2023-02-28T15:00:15;3.50;;;2.40;;
25752;SDS011;13600;50.816;4.416;2023-02-28T15:02:46;5.65;;;3.00;;
25752;SDS011;13600;50.816;4.416;2023-02-28T15:07:39;4.82;;;3.00;;
25752;SDS011;13600;50.816;4.416;2023-02-28T15:12:34;6.53;;;3.20;;
25752;SDS011;13600;50.816;4.416;2023-02-28T15:15:03;6.07;;;3.17;;
25752;SDS011;13600;50.816;4.416;2023-02-28T15:17:33;5.20;;;3.10;;
25752;SDS011;13600;50.816;4.416;2023-02-28T15:20:02;5.53;;;3.33;;
25752;SDS011;13600;50.816;4.416;2023-02-28T15:22:35;6.45;;;3.55;;
25752;SDS011;13600;50.816;4.416;2023-02-28T15:25:03;5.80;;;3.30;;
25752;SDS011;13600;50.816;4.416;2023-02-28T15:27:31;4.75;;;3.40;;
25752;SDS011;13600;50.816;4.416;2023-02-28T15:29:59;6.10;;;3.25;;
25752;SDS011;13600;50.816;4.416;2023-02-28T15:32:38;8.55;;;3.38;;
25752;SDS011;13600;50.816;4.416;2023-02-28T15:35:28;4.78;;;3.10;;
25752;SDS011;13600;50.816;4.416;2023-02-28T15:38:02;5.13;;;3.05;;
25752;SDS011;13600;50.816;4.416;2023-02-28T15:40:42;4.57;;;2.92;;
25752;SDS011;13600;50.816;4.416;2023-02-28T15:43:25;7.72;;;3.25;;
25752;SDS011;13600;50.816;4.416;2023-02-28T15:48:36;5.03;;;3.10;;
25752;SDS011;13600;50.816;4.416;2023-02-28T15:51:32;5.20;;;3.30;;
25752;SDS011;13600;50.816;4.416;2023-02-28T15:54:02;6.88;;;4.00;;
25752;SDS011;13600;50.816;4.416;2023-02-28T15:56:33;6.20;;;3.63;;
25752;SDS011;13600;50.816;4.416;2023-02-28T15:59:06;5.38;;;4.07;;
25752;SDS011;13600;50.816;4.416;2023-02-28T16:01:38;7.88;;;3.40;;
25752;SDS011;13600;50.816;4.416;2023-02-28T16:04:17;4.80;;;3.90;;
25752;SDS011;13600;50.816;4.416;2023-02-28T16:06:45;6.35;;;4.50;;
25752;SDS011;13600;50.816;4.416;2023-02-28T16:09:23;10.68;;;4.22;;
25752;SDS011;13600;50.816;4.416;2023-02-28T16:11:50;7.18;;;3.83;;
25752;SDS011;13600;50.816;4.416;2023-02-28T16:14:21;6.88;;;4.00;;
25752;SDS011;13600;50.816;4.416;2023-02-28T16:16:49;5.55;;;3.85;;
25752;SDS011;13600;50.816;4.416;2023-02-28T16:19:20;5.55;;;3.90;;
25752;SDS011;13600;50.816;4.416;2023-02-28T16:21:46;6.50;;;3.95;;
25752;SDS011;13600;50.816;4.416;2023-02-28T16:24:12;6.95;;;4.50;;
25752;SDS011;13600;50.816;4.416;2023-02-28T16:26:41;8.60;;;4.53;;
25752;SDS011;13600;50.816;4.416;2023-02-28T16:29:13;8.00;;;4.75;;
25752;SDS011;13600;50.816;4.416;2023-02-28T16:31:44;6.78;;;4.70;;
25752;SDS011;13600;50.816;4.416;2023-02-28T16:34:10;7.13;;;4.45;;
25752;SDS011;13600;50.816;4.416;2023-02-28T16:36:35;6.20;;;3.78;;
25752;SDS011;13600;50.816;4.416;2023-02-28T16:39:01;7.00;;;4.45;;
25752;SDS011;13600;50.816;4.416;2023-02-28T16:41:27;6.72;;;4.20;;
25752;SDS011;13600;50.816;4.416;2023-02-28T16:43:55;7.55;;;4.38;;
25752;SDS011;13600;50.816;4.416;2023-02-28T16:46:26;7.43;;;4.80;;
25752;SDS011;13600;50.816;4.416;2023-02-28T16:48:56;6.78;;;4.18;;
25752;SDS011;13600;50.816;4.416;2023-02-28T16:51:22;5.05;;;3.90;;
25752;SDS011;13600;50.816;4.416;2023-02-28T16:53:47;6.15;;;3.92;;
25752;SDS011;13600;50.816;4.416;2023-02-28T16:56:20;12.75;;;4.30;;
25752;SDS011;13600;50.816;4.416;2023-02-28T16:58:48;6.60;;;4.07;;
25752;SDS011;13600;50.816;4.416;2023-02-28T17:01:15;8.38;;;4.32;;
25752;SDS011;13600;50.816;4.416;2023-02-28T17:03:41;8.30;;;4.75;;
25752;SDS011;13600;50.816;4.416;2023-02-28T17:06:15;10.70;;;4.70;;
25752;SDS011;13600;50.816;4.416;2023-02-28T17:08:44;8.88;;;5.72;;
25752;SDS011;13600;50.816;4.416;2023-02-28T17:11:09;11.65;;;4.75;;
25752;SDS011;13600;50.816;4.416;2023-02-28T17:13:35;7.80;;;3.75;;
25752;SDS011;13600;50.816;4.416;2023-02-28T17:16:02;11.50;;;7.03;;
25752;SDS011;13600;50.816;4.416;2023-02-28T17:18:29;13.57;;;4.28;;
25752;SDS011;13600;50.816;4.416;2023-02-28T17:20:58;13.07;;;5.53;;
25752;SDS011;13600;50.816;4.416;2023-02-28T17:23:26;13.02;;;7.25;;
25752;SDS011;13600;50.816;4.416;2023-02-28T17:25:51;11.75;;;6.25;;
25752;SDS011;13600;50.816;4.416;2023-02-28T17:28:20;8.43;;;5.57;;
25752;SDS011;13600;50.816;4.416;2023-02-28T17:30:46;10.40;;;4.95;;
25752;SDS011;13600;50.816;4.416;2023-02-28T17:33:15;8.65;;;5.45;;